Dobrodošli na spletni strani vremenske postaje Senovo. Vse informacije so informativnega značaja, saj vremenska postaja ni del državne mreže meteoroloških postaj. OBVESTILO: Letni količini padavin navedeni na spletni strani je potrebno prišteti 98,1 mm, zaradi izgube podatkov.


Posebna pozornost v zvezi z vremenskimi dogajanji ni potrebna.    Posebna pozornost v zvezi z vremenskimi dogajanji ni potrebna.

Pogled proti Armezu več informacij Pogled proti Armezu


Lisca več informacij Lisca


Radar strel več informacij blitzortung!


Radar padavin več informacij rain snow radar


Obiščite še:

Template documentation
and downloads

And another site



Weather Underground, zgodovina - Tekstovno

Dnevni povzetek za Avgust 7, 2017 Enote:  Metrično    Angleško   Obe
« Predhodni Dan
Naslednji Dan »
Dnevni Tedenski Mesečni Letni Po meri
  Višja: Nižja: Povprečje:
Temperatura: 27.6 °C 16.1 °C 20.8 °C
Točka rosišča: 17.0 °C 11.3 °C 14 °C
Vlažnost: 92 % 41 % 68 %
Hitrost vetra: 10.8 km/h 0.0 km/h 3.4 km/h
Sunki vetra: 20.9 km/h - -
Veter:- - SE
Zračni tlak: 1022.9 hPa 1018.2 hPa -
Padavine: 8.1 mm    
Historical Graphs
 
 
Tabelarni podarki za Avgust 7, 2017
Čas Temperatura Točka rosišča Zračni tlak Veter Hitrost vetra Sunki vetra Vlažnost Intenziteta padavin (urna)
00:02 18.2 °C 16.6 °C 1020.9 hPa SSW 3.9 km/h 6.9 km/h 90 % 2.3 mm
00:07 18.1 °C 16.4 °C 1020.9 hPa South 3.2 km/h 6.9 km/h 90 % 2.5 mm
00:12 18.1 °C 16.4 °C 1020.9 hPa South 1.8 km/h 5.5 km/h 90 % 2.5 mm
00:17 18.0 °C 16.5 °C 1020.9 hPa NW 0.2 km/h 2.6 km/h 91 % 1.8 mm
00:22 18.0 °C 16.5 °C 1020.9 hPa West 0.6 km/h 5.0 km/h 91 % 1.8 mm
00:27 18.0 °C 16.5 °C 1020.9 hPa NW 2.1 km/h 5.5 km/h 91 % 2.0 mm
00:32 18.0 °C 16.7 °C 1020.9 hPa WNW 2.6 km/h 5.5 km/h 92 % 2.5 mm
00:37 18.0 °C 16.7 °C 1022.9 hPa West 1.1 km/h 4.0 km/h 92 % 3.3 mm
00:42 18.0 °C 16.7 °C 1022.9 hPa Calm   1.8 km/h 92 % 3.8 mm
00:47 18.0 °C 16.7 °C 1022.9 hPa ESE 0.5 km/h 3.2 km/h 92 % 4.6 mm
00:52 18.0 °C 16.7 °C 1021.9 hPa ESE 2.7 km/h 9.7 km/h 92 % 5.1 mm
00:57 17.9 °C 16.6 °C 1021.9 hPa ESE 5.3 km/h 10.1 km/h 92 % 5.8 mm
01:02 17.7 °C 16.4 °C 1021.9 hPa East 5.8 km/h 10.1 km/h 92 % 6.6 mm
01:07 17.5 °C 16.2 °C 1019.9 hPa East 5.5 km/h 16.3 km/h 92 % 6.9 mm
01:12 17.4 °C 15.9 °C 1019.9 hPa ENE 4.5 km/h 16.3 km/h 91 % 7.1 mm
01:17 17.2 °C 15.7 °C 1019.9 hPa East 6.6 km/h 16.6 km/h 91 % 7.1 mm
01:22 17.1 °C 15.6 °C 1018.2 hPa East 9.5 km/h 16.6 km/h 91 % 6.9 mm
01:27 17.1 °C 15.6 °C 1018.2 hPa ESE 10.8 km/h 20.9 km/h 91 % 6.3 mm
01:32 17.0 °C 15.3 °C 1018.2 hPa ESE 10.5 km/h 20.9 km/h 90 % 6.1 mm
01:37 17.0 °C 15.3 °C 1019.9 hPa ESE 9.5 km/h 20.9 km/h 90 % 5.3 mm
01:42 16.9 °C 15.4 °C 1019.9 hPa ENE 8.0 km/h 14.0 km/h 91 % 4.8 mm
01:52 16.8 °C 15.0 °C 1020.9 hPa NNW 3.5 km/h 9.3 km/h 89 % 3.0 mm
01:57 16.7 °C 14.9 °C 1020.9 hPa East 2.6 km/h 9.3 km/h 89 % 2.3 mm
02:03 16.6 °C 14.8 °C 1020.9 hPa ESE 3.2 km/h 9.3 km/h 89 % 1.5 mm
02:08 16.6 °C 14.6 °C 1019.9 hPa ENE 3.9 km/h 9.3 km/h 88 % 0.8 mm
02:13 16.6 °C 14.6 °C 1019.9 hPa East 3.9 km/h 6.9 km/h 88 % 0.3 mm
02:18 16.7 °C 14.5 °C 1019.9 hPa East 5.8 km/h 10.1 km/h 87 % 0.0 mm
02:23 16.7 °C 14.5 °C 1020.9 hPa ESE 6.9 km/h 12.6 km/h 87 % 0.0 mm
02:28 16.6 °C 14.4 °C 1020.9 hPa ESE 6.1 km/h 12.6 km/h 87 % 0.0 mm
02:33 16.7 °C 14.2 °C 1020.9 hPa ENE 6.1 km/h 13.7 km/h 85 % 0.0 mm
02:38 16.8 °C 14.3 °C 1020.9 hPa ENE 7.4 km/h 17.2 km/h 85 % 0.0 mm
02:43 16.8 °C 14.1 °C 1020.9 hPa ENE 7.4 km/h 17.2 km/h 84 % 0.0 mm
02:48 16.8 °C 13.9 °C 1020.9 hPa ENE 4.7 km/h 16.3 km/h 83 % 0.0 mm
02:53 16.8 °C 13.9 °C 1020.9 hPa ESE 3.2 km/h 9.0 km/h 83 % 0.0 mm
02:58 16.9 °C 13.8 °C 1020.9 hPa ESE 5.3 km/h 13.7 km/h 82 % 0.0 mm
03:03 16.9 °C 13.8 °C 1020.9 hPa East 5.1 km/h 13.7 km/h 82 % 0.0 mm
03:08 17.0 °C 13.7 °C 1019.9 hPa East 5.0 km/h 12.2 km/h 81 % 0.0 mm
03:13 17.1 °C 13.6 °C 1019.9 hPa East 5.1 km/h 12.2 km/h 80 % 0.0 mm
03:18 17.1 °C 13.4 °C 1019.9 hPa East 4.7 km/h 11.9 km/h 79 % 0.0 mm
03:23 17.1 °C 13.2 °C 1019.9 hPa ENE 4.7 km/h 11.9 km/h 78 % 0.0 mm
03:28 17.2 °C 13.3 °C 1019.9 hPa SE 4.7 km/h 9.7 km/h 78 % 0.0 mm
03:33 17.2 °C 13.3 °C 1019.9 hPa SE 4.7 km/h 12.6 km/h 78 % 0.0 mm
03:38 17.2 °C 13.3 °C 1019.9 hPa East 5.6 km/h 13.0 km/h 78 % 0.0 mm
03:43 17.0 °C 13.5 °C 1019.9 hPa ESE 4.7 km/h 13.0 km/h 80 % 0.0 mm
03:48 17.1 °C 13.4 °C 1019.9 hPa ESE 2.9 km/h 10.1 km/h 79 % 0.0 mm
03:53 17.1 °C 13.2 °C 1019.9 hPa SE 3.7 km/h 10.1 km/h 78 % 0.0 mm
03:58 17.1 °C 13.2 °C 1019.9 hPa ESE 3.9 km/h 10.8 km/h 78 % 0.0 mm
04:03 17.1 °C 13.4 °C 1019.9 hPa SE 4.7 km/h 10.8 km/h 79 % 0.0 mm
04:08 17.1 °C 13.4 °C 1019.9 hPa SSE 5.1 km/h 13.7 km/h 79 % 0.0 mm
04:13 17.1 °C 13.4 °C 1019.9 hPa ESE 4.3 km/h 13.7 km/h 79 % 0.0 mm
04:15 17.2 °C 13.5 °C 1019.9 hPa ESE 5.3 km/h 13.7 km/h 79 % 0.0 mm
04:20 17.2 °C 13.5 °C 1019.9 hPa SE 6.0 km/h 13.0 km/h 79 % 0.0 mm
04:25 17.2 °C 13.7 °C 1019.9 hPa SSE 4.3 km/h 13.0 km/h 80 % 0.0 mm
04:30 17.1 °C 13.6 °C 1019.9 hPa SSE 3.2 km/h 10.5 km/h 80 % 0.0 mm
04:35 17.0 °C 13.7 °C 1019.9 hPa South 4.5 km/h 6.9 km/h 81 % 0.0 mm
04:40 16.9 °C 13.8 °C 1019.9 hPa SSW 3.4 km/h 5.5 km/h 82 % 0.0 mm
04:45 16.8 °C 13.7 °C 1019.9 hPa SW 2.1 km/h 5.8 km/h 82 % 0.0 mm
04:50 16.7 °C 13.8 °C 1019.9 hPa ESE 1.4 km/h 5.8 km/h 83 % 0.0 mm
04:52 16.7 °C 13.8 °C 1019.9 hPa North 0.8 km/h 4.0 km/h 83 % 0.0 mm
04:57 16.7 °C 13.8 °C 1019.9 hPa SW 0.8 km/h 4.7 km/h 83 % 0.0 mm
05:02 16.6 °C 13.9 °C 1019.9 hPa SW 1.8 km/h 4.7 km/h 84 % 0.0 mm
05:07 16.6 °C 13.9 °C 1019.9 hPa WSW 1.9 km/h 4.3 km/h 84 % 0.0 mm
05:12 16.5 °C 13.8 °C 1019.9 hPa West 1.8 km/h 5.5 km/h 84 % 0.0 mm
05:17 16.5 °C 13.9 °C 1019.9 hPa WNW 1.3 km/h 5.5 km/h 85 % 0.0 mm
05:22 16.4 °C 13.9 °C 1019.9 hPa West 0.6 km/h 4.7 km/h 85 % 0.0 mm
05:27 16.4 °C 14.1 °C 1019.9 hPa Calm     86 % 0.0 mm
05:31 16.4 °C 14.1 °C 1019.9 hPa Calm     86 % 0.0 mm
05:36 16.4 °C 14.2 °C 1019.9 hPa Calm     87 % 0.0 mm
05:41 16.3 °C 14.1 °C 1019.9 hPa SSW 0.2 km/h 3.5 km/h 87 % 0.0 mm
05:46 16.3 °C 14.1 °C 1019.9 hPa SSW 0.5 km/h 3.5 km/h 87 % 0.0 mm
05:51 16.3 °C 14.3 °C 1019.9 hPa North 0.2 km/h   88 % 0.0 mm
05:56 16.3 °C 14.3 °C 1019.9 hPa Calm     88 % 0.0 mm
06:01 16.3 °C 14.3 °C 1019.9 hPa Calm     88 % 0.0 mm
06:06 16.2 °C 14.4 °C 1020.9 hPa Calm     89 % 0.0 mm
06:11 16.2 °C 14.4 °C 1020.9 hPa Calm     89 % 0.0 mm
06:16 16.2 °C 14.4 °C 1020.9 hPa Calm     89 % 0.0 mm
06:21 16.2 °C 14.4 °C 1020.9 hPa Calm     89 % 0.0 mm
06:26 16.2 °C 14.6 °C 1020.9 hPa Calm   2.6 km/h 90 % 0.0 mm
06:31 16.1 °C 14.4 °C 1020.9 hPa NE 0.5 km/h 3.2 km/h 90 % 0.0 mm
06:36 16.2 °C 14.6 °C 1020.9 hPa NE 0.5 km/h 3.2 km/h 90 % 0.0 mm
06:41 16.2 °C 14.6 °C 1020.9 hPa Calm     90 % 0.0 mm
06:46 16.3 °C 14.7 °C 1020.9 hPa Calm     90 % 0.0 mm
06:51 16.3 °C 14.7 °C 1020.9 hPa Calm     90 % 0.0 mm
06:56 16.4 °C 14.8 °C 1020.9 hPa Calm     90 % 0.0 mm
07:01 16.4 °C 14.8 °C 1020.9 hPa Calm     90 % 0.0 mm
07:06 16.5 °C 14.8 °C 1019.9 hPa Calm     90 % 0.0 mm
07:11 16.5 °C 14.8 °C 1019.9 hPa Calm     90 % 0.0 mm
07:16 16.6 °C 14.9 °C 1019.9 hPa Calm     90 % 0.0 mm
07:21 16.7 °C 15.1 °C 1020.9 hPa Calm     90 % 0.0 mm
07:23 16.7 °C 15.1 °C 1020.9 hPa Calm     90 % 0.0 mm
07:28 16.8 °C 15.2 °C 1020.9 hPa Calm     90 % 0.0 mm
07:38 17.0 °C 15.3 °C 1019.9 hPa Calm     90 % 0.0 mm
07:43 17.1 °C 15.4 °C 1019.9 hPa Calm     90 % 0.0 mm
07:48 17.2 °C 15.6 °C 1019.9 hPa Calm     90 % 0.0 mm
07:53 17.3 °C 15.4 °C 1020.9 hPa Calm     89 % 0.0 mm
07:58 17.5 °C 15.7 °C 1020.9 hPa Calm   2.1 km/h 89 % 0.0 mm
08:03 17.7 °C 15.9 °C 1020.9 hPa SSW 1.6 km/h 4.3 km/h 89 % 0.0 mm
08:08 17.8 °C 15.8 °C 1020.9 hPa SSW 2.6 km/h 5.0 km/h 88 % 0.0 mm
08:13 18.0 °C 15.8 °C 1020.9 hPa South 2.4 km/h 5.0 km/h 87 % 0.0 mm
08:18 18.1 °C 15.9 °C 1020.9 hPa SSW 3.2 km/h 6.1 km/h 87 % 0.0 mm
08:23 18.3 °C 15.9 °C 1020.9 hPa SSW 3.7 km/h 6.1 km/h 86 % 0.0 mm
08:28 18.4 °C 15.8 °C 1020.9 hPa SSW 4.0 km/h 5.5 km/h 85 % 0.0 mm
08:33 18.5 °C 15.7 °C 1020.9 hPa SSW 3.7 km/h 5.8 km/h 84 % 0.0 mm
08:38 18.7 °C 15.8 °C 1020.9 hPa SW 3.2 km/h 5.8 km/h 83 % 0.0 mm
08:43 18.9 °C 15.9 °C 1020.9 hPa WSW 3.1 km/h 5.8 km/h 83 % 0.0 mm
08:48 19.2 °C 16.1 °C 1020.9 hPa WSW 3.2 km/h 5.8 km/h 82 % 0.0 mm
08:53 19.5 °C 16.2 °C 1020.9 hPa SW 3.5 km/h 5.8 km/h 81 % 0.0 mm
08:54 19.6 °C 16.2 °C 1020.9 hPa SW 3.7 km/h 5.8 km/h 81 % 0.0 mm
08:59 19.9 °C 16.6 °C 1020.9 hPa SSW 3.7 km/h 6.4 km/h 81 % 0.0 mm
09:04 20.2 °C 16.6 °C 1020.9 hPa SSW 4.2 km/h 7.9 km/h 80 % 0.0 mm
09:09 20.5 °C 16.7 °C 1020.9 hPa SSW 3.7 km/h 7.9 km/h 79 % 0.0 mm
09:14 20.8 °C 17.0 °C 1020.9 hPa SSW 2.6 km/h 5.5 km/h 79 % 0.0 mm
09:19 20.9 °C 16.7 °C 1019.9 hPa SSW 2.4 km/h 5.5 km/h 77 % 0.0 mm
09:24 21.0 °C 16.4 °C 1019.9 hPa SW 1.9 km/h 5.8 km/h 75 % 0.0 mm
09:26 21.1 °C 16.7 °C 1019.9 hPa SSW 2.1 km/h 5.8 km/h 76 % 0.0 mm
09:32 21.3 °C 16.5 °C 1019.9 hPa SSW 1.6 km/h 5.8 km/h 74 % 0.0 mm
09:37 21.6 °C 16.3 °C 1020.9 hPa ESE 2.1 km/h 4.7 km/h 72 % 0.0 mm
09:42 21.9 °C 16.4 °C 1020.9 hPa ESE 2.7 km/h 6.1 km/h 71 % 0.0 mm
09:47 22.0 °C 16.3 °C 1020.9 hPa South 2.7 km/h 6.1 km/h 70 % 0.0 mm
09:52 22.2 °C 16.4 °C 1020.9 hPa South 2.7 km/h 6.9 km/h 70 % 0.0 mm
09:57 22.4 °C 16.2 °C 1020.9 hPa SSE 3.7 km/h 8.7 km/h 68 % 0.0 mm
10:02 22.6 °C 15.2 °C 1020.9 hPa ESE 5.6 km/h 19.8 km/h 63 % 0.0 mm
10:07 22.8 °C 14.9 °C 1020.9 hPa East 6.1 km/h 19.8 km/h 61 % 0.0 mm
10:12 23.1 °C 14.4 °C 1020.9 hPa East 6.4 km/h 16.9 km/h 58 % 0.0 mm
10:17 23.1 °C 13.6 °C 1020.9 hPa East 8.5 km/h 16.9 km/h 55 % 0.3 mm
10:27 23.2 °C 13.7 °C 1020.9 hPa East 8.2 km/h 19.5 km/h 55 % 0.3 mm
10:32 23.2 °C 13.7 °C 1020.9 hPa ENE 8.7 km/h 19.5 km/h 55 % 0.3 mm
10:37 23.2 °C 14.2 °C 1020.9 hPa ENE 6.9 km/h 12.2 km/h 57 % 0.3 mm
10:38 23.2 °C 13.9 °C 1020.9 hPa East 6.4 km/h 11.9 km/h 56 % 0.3 mm
10:43 23.2 °C 13.9 °C 1020.9 hPa East 4.3 km/h 9.0 km/h 56 % 0.3 mm
10:48 23.0 °C 13.2 °C 1020.9 hPa NNE 4.2 km/h 12.2 km/h 54 % 0.3 mm
10:53 23.1 °C 13.6 °C 1020.9 hPa NNE 4.8 km/h 12.2 km/h 55 % 0.3 mm
10:58 23.5 °C 13.9 °C 1020.9 hPa ENE 5.8 km/h 12.6 km/h 55 % 0.3 mm
11:03 23.8 °C 14.2 °C 1020.9 hPa East 7.1 km/h 15.4 km/h 55 % 0.3 mm
11:08 23.9 °C 14.3 °C 1020.9 hPa East 7.4 km/h 15.4 km/h 55 % 0.3 mm
11:13 23.7 °C 13.6 °C 1020.9 hPa ENE 8.0 km/h 15.1 km/h 53 % 0.0 mm
11:18 23.6 °C 13.2 °C 1020.9 hPa ENE 6.8 km/h 12.2 km/h 52 % 0.0 mm
11:23 23.7 °C 13.3 °C 1020.9 hPa ENE 5.5 km/h 10.1 km/h 52 % 0.0 mm
11:28 23.8 °C 13.3 °C 1020.9 hPa East 6.3 km/h 17.2 km/h 52 % 0.0 mm
11:33 24.1 °C 13.6 °C 1020.9 hPa East 7.2 km/h 17.2 km/h 52 % 0.0 mm
11:38 24.3 °C 13.8 °C 1019.9 hPa East 6.1 km/h 12.6 km/h 52 % 0.0 mm
11:43 24.3 °C 13.2 °C 1019.9 hPa East 5.0 km/h 13.7 km/h 50 % 0.0 mm
11:48 24.4 °C 13.0 °C 1019.9 hPa East 6.1 km/h 15.8 km/h 49 % 0.0 mm
11:53 24.7 °C 13.6 °C 1020.9 hPa East 7.2 km/h 16.9 km/h 50 % 0.0 mm
11:58 24.8 °C 13.1 °C 1020.9 hPa ESE 6.9 km/h 16.9 km/h 48 % 0.0 mm
12:03 24.8 °C 13.1 °C 1020.9 hPa East 7.1 km/h 14.0 km/h 48 % 0.0 mm
12:08 24.8 °C 12.7 °C 1020.9 hPa ENE 7.1 km/h 14.0 km/h 47 % 0.0 mm
12:13 24.9 °C 12.8 °C 1020.9 hPa ENE 6.1 km/h 17.7 km/h 47 % 0.0 mm
12:18 25.0 °C 12.9 °C 1020.9 hPa ENE 5.8 km/h 17.7 km/h 47 % 0.0 mm
12:23 25.0 °C 12.6 °C 1019.9 hPa ENE 5.8 km/h 12.2 km/h 46 % 0.0 mm
12:28 25.0 °C 12.6 °C 1019.9 hPa ENE 6.8 km/h 16.3 km/h 46 % 0.0 mm
12:33 25.2 °C 13.1 °C 1020.9 hPa NE 8.5 km/h 16.3 km/h 47 % 0.0 mm
12:38 25.1 °C 12.7 °C 1020.9 hPa East 6.6 km/h 15.8 km/h 46 % 0.0 mm
12:43 25.2 °C 12.8 °C 1020.9 hPa ESE 6.6 km/h 11.9 km/h 46 % 0.0 mm
12:48 24.9 °C 12.5 °C 1019.9 hPa East 6.0 km/h 15.8 km/h 46 % 0.0 mm
12:53 25.1 °C 12.7 °C 1019.9 hPa ENE 5.5 km/h 15.8 km/h 46 % 0.0 mm
12:58 25.0 °C 12.6 °C 1019.9 hPa ENE 6.3 km/h 12.6 km/h 46 % 0.0 mm
13:03 24.8 °C 12.4 °C 1019.9 hPa NE 7.4 km/h 13.7 km/h 46 % 0.0 mm
13:08 25.2 °C 12.8 °C 1019.9 hPa NE 6.3 km/h 13.7 km/h 46 % 0.0 mm
13:09 25.2 °C 12.4 °C 1019.9 hPa ENE 6.3 km/h 11.9 km/h 45 % 0.0 mm
13:14 25.5 °C 12.7 °C 1019.9 hPa East 5.6 km/h 14.0 km/h 45 % 0.0 mm
13:19 25.7 °C 12.9 °C 1019.9 hPa ESE 7.1 km/h 14.0 km/h 45 % 0.0 mm
13:24 25.9 °C 12.7 °C 1019.9 hPa ESE 7.9 km/h 14.0 km/h 44 % 0.0 mm
13:29 25.4 °C 12.3 °C 1019.9 hPa East 7.2 km/h 12.2 km/h 44 % 0.0 mm
13:34 25.5 °C 12.7 °C 1019.9 hPa ENE 6.8 km/h 13.0 km/h 45 % 0.0 mm
13:39 25.8 °C 12.6 °C 1019.9 hPa ENE 5.8 km/h 13.0 km/h 44 % 0.0 mm
13:44 25.7 °C 12.6 °C 1019.9 hPa ENE 4.7 km/h 12.6 km/h 44 % 0.0 mm
13:49 25.7 °C 12.6 °C 1018.8 hPa ENE 4.8 km/h 12.6 km/h 44 % 0.0 mm
13:54 26.0 °C 12.8 °C 1018.8 hPa ENE 6.3 km/h 11.9 km/h 44 % 0.0 mm
13:59 25.6 °C 12.4 °C 1018.8 hPa East 6.6 km/h 10.5 km/h 44 % 0.0 mm
14:04 25.8 °C 12.9 °C 1018.8 hPa ESE 6.3 km/h 10.5 km/h 45 % 0.0 mm
14:09 26.1 °C 12.9 °C 1018.8 hPa ESE 7.6 km/h 15.4 km/h 44 % 0.0 mm
14:14 26.0 °C 12.4 °C 1018.8 hPa East 8.2 km/h 15.4 km/h 43 % 0.0 mm
14:19 26.1 °C 12.9 °C 1019.9 hPa ENE 7.1 km/h 12.6 km/h 44 % 0.0 mm
14:24 26.1 °C 12.9 °C 1019.9 hPa NE 6.0 km/h 11.1 km/h 44 % 0.0 mm
14:29 26.4 °C 13.2 °C 1019.9 hPa East 4.8 km/h 11.1 km/h 44 % 0.0 mm
14:34 26.4 °C 12.8 °C 1019.9 hPa ESE 6.4 km/h 17.2 km/h 43 % 0.0 mm
14:39 26.3 °C 12.7 °C 1019.9 hPa East 6.6 km/h 17.2 km/h 43 % 0.0 mm
14:44 26.1 °C 12.6 °C 1019.9 hPa East 4.7 km/h 10.8 km/h 43 % 0.0 mm
14:49 25.8 °C 12.6 °C 1020.9 hPa ESE 4.8 km/h 10.8 km/h 44 % 0.0 mm
14:55 25.8 °C 12.6 °C 1020.9 hPa East 4.0 km/h 9.3 km/h 44 % 0.0 mm
15:00 26.1 °C 12.9 °C 1020.9 hPa East 3.1 km/h 7.2 km/h 44 % 0.0 mm
15:05 25.9 °C 12.7 °C 1019.9 hPa ENE 4.0 km/h 10.5 km/h 44 % 0.0 mm
15:10 25.8 °C 12.3 °C 1019.9 hPa ENE 4.7 km/h 10.5 km/h 43 % 0.0 mm
15:15 26.2 °C 13.0 °C 1019.9 hPa SE 4.5 km/h 10.1 km/h 44 % 0.0 mm
15:20 26.5 °C 12.9 °C 1020.9 hPa SE 5.8 km/h 13.7 km/h 43 % 0.0 mm
15:25 26.5 °C 12.6 °C 1020.9 hPa East 6.6 km/h 15.4 km/h 42 % 0.0 mm
15:30 26.5 °C 12.9 °C 1020.9 hPa ENE 6.3 km/h 15.4 km/h 43 % 0.0 mm
15:36 26.6 °C 12.6 °C 1018.8 hPa ENE 5.0 km/h 14.3 km/h 42 % 0.0 mm
15:41 26.7 °C 13.1 °C 1018.8 hPa ENE 5.5 km/h 14.0 km/h 43 % 0.0 mm
15:46 26.7 °C 13.1 °C 1018.8 hPa ENE 6.0 km/h 14.0 km/h 43 % 0.0 mm
15:51 26.7 °C 12.7 °C 1019.9 hPa NE 4.3 km/h 12.2 km/h 42 % 0.0 mm
15:56 26.7 °C 12.7 °C 1019.9 hPa NE 5.0 km/h 12.2 km/h 42 % 0.0 mm
16:01 26.8 °C 12.8 °C 1019.9 hPa ENE 5.0 km/h 9.7 km/h 42 % 0.0 mm
16:06 26.9 °C 13.3 °C 1018.8 hPa East 5.6 km/h 15.8 km/h 43 % 0.0 mm
16:11 27.1 °C 13.1 °C 1018.8 hPa East 7.4 km/h 15.8 km/h 42 % 0.0 mm
16:16 27.2 °C 13.2 °C 1018.8 hPa East 6.4 km/h 14.0 km/h 42 % 0.0 mm
16:21 27.2 °C 13.2 °C 1019.9 hPa ENE 5.0 km/h 11.1 km/h 42 % 0.0 mm
16:26 27.2 °C 13.2 °C 1019.9 hPa East 4.7 km/h 11.1 km/h 42 % 0.0 mm
16:31 27.3 °C 12.9 °C 1019.9 hPa SE 4.8 km/h 9.7 km/h 41 % 0.0 mm
16:36 27.4 °C 13.0 °C 1019.9 hPa SE 5.5 km/h 11.9 km/h 41 % 0.0 mm
16:41 27.5 °C 13.1 °C 1019.9 hPa ESE 5.1 km/h 11.9 km/h 41 % 0.0 mm
16:46 27.6 °C 13.2 °C 1019.9 hPa East 5.5 km/h 14.8 km/h 41 % 0.0 mm
16:51 27.4 °C 13.0 °C 1019.9 hPa East 6.3 km/h 14.8 km/h 41 % 0.0 mm
16:56 27.2 °C 12.8 °C 1019.9 hPa ENE 5.6 km/h 11.9 km/h 41 % 0.0 mm
17:01 27.3 °C 12.9 °C 1019.9 hPa ENE 5.5 km/h 11.6 km/h 41 % 0.0 mm
17:06 27.3 °C 12.9 °C 1018.8 hPa East 5.0 km/h 9.7 km/h 41 % 0.0 mm
17:11 27.1 °C 12.7 °C 1018.8 hPa ESE 4.7 km/h 9.7 km/h 41 % 0.0 mm
17:16 27.1 °C 12.7 °C 1018.8 hPa East 5.5 km/h 11.9 km/h 41 % 0.0 mm
17:21 27.1 °C 12.7 °C 1018.8 hPa East 6.1 km/h 13.0 km/h 41 % 0.0 mm
17:26 27.1 °C 12.7 °C 1018.8 hPa East 6.1 km/h 13.0 km/h 41 % 0.0 mm
17:31 26.8 °C 12.8 °C 1018.8 hPa ENE 6.0 km/h 14.0 km/h 42 % 0.0 mm
17:36 26.3 °C 12.4 °C 1018.8 hPa ENE 4.7 km/h 14.0 km/h 42 % 0.0 mm
17:41 25.9 °C 12.0 °C 1018.8 hPa East 3.5 km/h 10.5 km/h 42 % 0.0 mm
17:46 26.0 °C 12.1 °C 1018.8 hPa East 4.5 km/h 10.5 km/h 42 % 0.0 mm
17:56 26.3 °C 12.7 °C 1018.8 hPa ENE 3.1 km/h 6.9 km/h 43 % 0.0 mm
18:01 26.3 °C 12.7 °C 1018.8 hPa East 2.6 km/h 6.9 km/h 43 % 0.0 mm
18:06 26.2 °C 12.3 °C 1018.8 hPa East 3.1 km/h 6.9 km/h 42 % 0.0 mm
18:11 26.0 °C 12.4 °C 1018.8 hPa East 3.2 km/h 8.7 km/h 43 % 0.0 mm
18:16 25.8 °C 12.3 °C 1018.8 hPa East 3.4 km/h 8.7 km/h 43 % 0.0 mm
18:21 25.5 °C 12.0 °C 1018.8 hPa East 5.0 km/h 12.6 km/h 43 % 0.0 mm
18:26 25.3 °C 11.8 °C 1018.8 hPa East 5.1 km/h 12.6 km/h 43 % 0.0 mm
18:31 25.0 °C 11.6 °C 1018.8 hPa ENE 3.9 km/h 10.5 km/h 43 % 0.0 mm
18:36 24.8 °C 11.7 °C 1018.8 hPa East 2.7 km/h 10.5 km/h 44 % 0.0 mm
18:41 24.7 °C 11.6 °C 1018.8 hPa East 2.4 km/h 7.6 km/h 44 % 0.0 mm
18:46 24.5 °C 11.4 °C 1018.8 hPa East 2.3 km/h 5.8 km/h 44 % 0.0 mm
18:51 24.4 °C 11.3 °C 1018.8 hPa East 2.1 km/h 6.9 km/h 44 % 0.0 mm
18:56 24.2 °C 11.5 °C 1018.8 hPa East 1.3 km/h 6.9 km/h 45 % 0.0 mm
19:02 23.9 °C 11.6 °C 1018.8 hPa ENE 1.3 km/h 6.1 km/h 46 % 0.0 mm
19:07 23.7 °C 11.7 °C 1018.2 hPa NE 1.3 km/h 6.1 km/h 47 % 0.0 mm
19:12 23.5 °C 11.8 °C 1018.2 hPa NNE 0.8 km/h 6.1 km/h 48 % 0.0 mm
19:17 23.2 °C 12.2 °C 1018.2 hPa North 1.6 km/h 6.1 km/h 50 % 0.0 mm
19:22 22.9 °C 12.8 °C 1018.2 hPa NW 1.0 km/h 3.2 km/h 53 % 0.0 mm
19:27 22.6 °C 12.6 °C 1018.2 hPa NW 0.8 km/h 4.0 km/h 53 % 0.0 mm
19:32 22.2 °C 12.7 °C 1018.2 hPa NW 0.8 km/h 4.0 km/h 55 % 0.0 mm
19:37 21.9 °C 13.3 °C 1018.2 hPa NNW 0.3 km/h 2.1 km/h 58 % 0.0 mm
19:42 21.6 °C 13.0 °C 1018.2 hPa NW 0.3 km/h 3.5 km/h 58 % 0.0 mm
19:47 21.2 °C 13.4 °C 1018.2 hPa NNW 0.6 km/h 3.5 km/h 61 % 0.0 mm
19:52 21.0 °C 13.2 °C 1018.2 hPa NW 1.0 km/h 5.5 km/h 61 % 0.0 mm
19:57 20.8 °C 13.3 °C 1018.2 hPa NW 1.9 km/h 5.5 km/h 62 % 0.0 mm
20:02 20.6 °C 13.6 °C 1018.2 hPa NW 2.3 km/h 5.0 km/h 64 % 0.0 mm
20:07 20.4 °C 13.3 °C 1018.2 hPa NW 1.0 km/h 4.7 km/h 64 % 0.0 mm
20:12 20.2 °C 13.4 °C 1018.2 hPa NNW 0.3 km/h 4.0 km/h 65 % 0.0 mm
20:17 20.0 °C 13.4 °C 1018.2 hPa NNW 0.5 km/h 4.7 km/h 66 % 0.0 mm
20:22 19.7 °C 13.6 °C 1018.2 hPa NW 0.5 km/h 4.7 km/h 68 % 0.0 mm
20:27 19.5 °C 13.4 °C 1018.2 hPa NW 0.2 km/h 3.5 km/h 68 % 0.0 mm
20:32 19.3 °C 13.7 °C 1018.2 hPa Calm   1.8 km/h 70 % 0.0 mm
20:37 19.0 °C 13.4 °C 1018.2 hPa NW 0.3 km/h 4.3 km/h 70 % 0.0 mm
20:42 18.9 °C 13.5 °C 1018.2 hPa NW 1.0 km/h 4.3 km/h 71 % 0.0 mm
20:47 18.7 °C 13.6 °C 1018.2 hPa NW 0.6 km/h 4.3 km/h 72 % 0.0 mm
20:52 18.6 °C 13.4 °C 1018.2 hPa NNW 0.3 km/h 4.0 km/h 72 % 0.0 mm
20:57 18.5 °C 13.6 °C 1018.2 hPa NNW 0.5 km/h 4.0 km/h 73 % 0.0 mm
21:02 18.4 °C 13.4 °C 1018.2 hPa NNW 0.2 km/h 3.5 km/h 73 % 0.0 mm
21:07 18.2 °C 13.5 °C 1018.2 hPa Calm   1.4 km/h 74 % 0.0 mm
21:12 18.2 °C 13.7 °C 1018.2 hPa Calm   1.4 km/h 75 % 0.0 mm
21:17 18.0 °C 13.5 °C 1018.2 hPa Calm   1.8 km/h 75 % 0.0 mm
21:22 18.0 °C 13.7 °C 1018.8 hPa North 0.2 km/h 2.1 km/h 76 % 0.0 mm
21:27 17.9 °C 14.0 °C 1018.8 hPa North 0.2 km/h 2.1 km/h 78 % 0.0 mm
21:32 17.9 °C 14.0 °C 1018.8 hPa Calm     78 % 0.0 mm
21:37 17.8 °C 13.9 °C 1018.2 hPa Calm     78 % 0.0 mm
21:42 17.8 °C 13.9 °C 1018.2 hPa Calm     78 % 0.0 mm
21:47 17.7 °C 14.0 °C 1018.2 hPa Calm     79 % 0.0 mm
21:52 17.7 °C 14.0 °C 1018.2 hPa Calm     79 % 0.0 mm
21:57 17.7 °C 14.2 °C 1018.2 hPa Calm     80 % 0.0 mm
22:02 17.7 °C 14.2 °C 1018.2 hPa Calm     80 % 0.0 mm
22:07 17.7 °C 14.0 °C 1018.8 hPa Calm     79 % 0.0 mm
22:12 17.8 °C 14.3 °C 1018.8 hPa Calm     80 % 0.0 mm
22:17 17.8 °C 14.3 °C 1018.8 hPa Calm     80 % 0.0 mm
22:22 17.8 °C 14.3 °C 1018.8 hPa Calm     80 % 0.0 mm
22:27 17.9 °C 14.4 °C 1018.8 hPa Calm     80 % 0.0 mm
22:32 17.9 °C 14.6 °C 1018.8 hPa Calm     81 % 0.0 mm
22:37 17.9 °C 14.4 °C 1018.8 hPa Calm     80 % 0.0 mm
22:42 17.9 °C 14.6 °C 1018.8 hPa Calm     81 % 0.0 mm
22:47 17.9 °C 14.6 °C 1018.8 hPa Calm     81 % 0.0 mm
22:52 17.9 °C 14.6 °C 1018.8 hPa Calm     81 % 0.0 mm
22:57 17.9 °C 14.6 °C 1018.8 hPa Calm     81 % 0.0 mm
23:02 18.0 °C 14.7 °C 1018.8 hPa Calm     81 % 0.0 mm
23:08 18.0 °C 14.7 °C 1018.8 hPa Calm     81 % 0.0 mm
23:13 18.0 °C 14.7 °C 1018.8 hPa Calm     81 % 0.0 mm
23:18 18.1 °C 14.8 °C 1018.8 hPa Calm     81 % 0.0 mm
23:23 18.2 °C 14.9 °C 1018.8 hPa Calm     81 % 0.0 mm
23:28 18.2 °C 15.1 °C 1018.8 hPa Calm     82 % 0.0 mm
23:33 18.3 °C 15.0 °C 1018.8 hPa Calm     81 % 0.0 mm
23:38 18.4 °C 15.3 °C 1018.8 hPa Calm     82 % 0.0 mm
23:43 18.4 °C 15.3 °C 1018.8 hPa Calm     82 % 0.0 mm
23:48 18.4 °C 15.3 °C 1018.8 hPa Calm     82 % 0.0 mm
23:53 18.5 °C 15.4 °C 1018.8 hPa Calm     82 % 0.0 mm
23:58 18.5 °C 15.2 °C 1018.8 hPa Calm     81 % 0.0 mm
Vremenska postaja Senovo
Podatki zbrani iz Weather Underground - 3 mb

Script developed by  Jim McMurry - jmcmurry@mwt.net Adapted for the template by  Wim van der Kuil - Leuven-Template.eu

Vremenski podatki so objavljeni na:

WeatherCloud

Weather Underground

AWEKAS

HAMweather, WeatherForYou, PWS Weather

MapView

Geostik

Slovenia weather network

Oprema, ki se uporablja:

Vremenski program
Cumulus

Cumulus